createdAt,value
2023-02-24T00:02:05.319Z,100.00
2023-02-24T00:04:39.508Z,100.00
2023-02-24T00:07:12.786Z,100.00
2023-02-24T00:09:40.264Z,100.00
2023-02-24T00:12:12.751Z,100.00
2023-02-24T00:14:43.629Z,100.00
2023-02-24T00:17:15.666Z,100.00
2023-02-24T00:19:43.136Z,100.00
2023-02-24T00:22:10.409Z,100.00
2023-02-24T00:24:37.523Z,100.00
2023-02-24T00:27:07.909Z,100.00
2023-02-24T00:29:37.690Z,100.00
2023-02-24T00:32:07.270Z,100.00
2023-02-24T00:34:37.572Z,100.00
2023-02-24T00:37:07.067Z,100.00
2023-02-24T00:39:35.799Z,100.00
2023-02-24T00:42:06.012Z,100.00
2023-02-24T00:44:37.819Z,100.00
2023-02-24T00:47:08.683Z,100.00
2023-02-24T00:49:42.148Z,100.00
2023-02-24T00:52:15.572Z,100.00
2023-02-24T00:54:44.120Z,100.00
2023-02-24T00:57:11.684Z,100.00
2023-02-24T00:59:39.266Z,100.00
2023-02-24T01:02:11.523Z,100.00
2023-02-24T01:04:38.750Z,100.00
2023-02-24T01:07:11.174Z,100.00
2023-02-24T01:09:41.444Z,100.00
2023-02-24T01:12:31.971Z,100.00
2023-02-24T01:14:58.930Z,100.00
2023-02-24T01:17:25.900Z,100.00
2023-02-24T01:19:53.333Z,100.00
2023-02-24T01:22:21.321Z,100.00
2023-02-24T01:24:48.809Z,100.00
2023-02-24T01:27:20.749Z,100.00
2023-02-24T01:29:48.365Z,100.00
2023-02-24T01:32:20.847Z,100.00
2023-02-24T01:34:52.070Z,100.00
2023-02-24T01:37:20.516Z,100.00
2023-02-24T01:39:48.370Z,100.00
2023-02-24T01:42:19.971Z,100.00
2023-02-24T01:44:47.535Z,100.00
2023-02-24T01:47:18.193Z,100.00
2023-02-24T01:49:48.343Z,100.00
2023-02-24T01:52:30.632Z,100.00
2023-02-24T01:55:07.169Z,100.00
2023-02-24T01:57:38.771Z,100.00
2023-02-24T02:00:12.251Z,100.00
2023-02-24T02:02:42.735Z,100.00
2023-02-24T02:05:11.594Z,100.00
2023-02-24T02:07:40.454Z,100.00
2023-02-24T02:10:10.071Z,100.00
2023-02-24T02:12:44.628Z,100.00
2023-02-24T02:15:20.248Z,100.00
2023-02-24T02:18:08.105Z,100.00
2023-02-24T02:21:32.668Z,100.00
2023-02-24T02:24:20.467Z,100.00
2023-02-24T02:27:21.165Z,100.00
2023-02-24T02:30:34.734Z,100.00
2023-02-24T02:33:39.967Z,100.00
2023-02-24T02:36:24.618Z,100.00
2023-02-24T02:39:08.715Z,100.00
2023-02-24T02:41:56.317Z,100.00
2023-02-24T02:44:41.672Z,100.00
2023-02-24T02:47:26.993Z,100.00
2023-02-24T02:50:36.004Z,100.00
2023-02-24T02:53:12.528Z,100.00
2023-02-24T02:55:53.547Z,100.00
2023-02-24T02:58:26.397Z,100.00
2023-02-24T03:01:04.587Z,100.00
2023-02-24T03:03:47.004Z,100.00
2023-02-24T03:06:28.272Z,100.00
2023-02-24T03:09:12.530Z,100.00
2023-02-24T03:11:40.285Z,100.00
2023-02-24T03:14:12.164Z,100.00
2023-02-24T03:16:46.229Z,100.00
2023-02-24T03:19:17.809Z,100.00
2023-02-24T03:21:48.540Z,100.00
2023-02-24T03:24:15.787Z,100.00
2023-02-24T03:27:06.372Z,100.00
2023-02-24T03:29:48.562Z,100.00
2023-02-24T03:32:51.312Z,100.00
2023-02-24T03:35:24.412Z,100.00
2023-02-24T03:37:53.370Z,100.00
2023-02-24T03:40:21.168Z,100.00
2023-02-24T03:42:52.531Z,100.00
2023-02-24T03:45:22.907Z,100.00
2023-02-24T03:47:54.144Z,100.00
2023-02-24T03:50:22.227Z,100.00
2023-02-24T03:53:35.709Z,100.00
2023-02-24T03:56:45.917Z,100.00
2023-02-24T03:59:49.359Z,100.00
2023-02-24T04:02:26.771Z,100.00
2023-02-24T04:05:13.808Z,100.00
2023-02-24T04:07:53.178Z,100.00
2023-02-24T04:10:31.595Z,100.00
2023-02-24T04:13:19.646Z,100.00
2023-02-24T04:15:59.077Z,100.00
2023-02-24T04:18:31.118Z,100.00
2023-02-24T04:21:01.108Z,100.00
2023-02-24T04:23:38.720Z,100.00
2023-02-24T04:26:07.101Z,100.00
2023-02-24T04:28:35.702Z,100.00
2023-02-24T04:31:10.179Z,100.00
2023-02-24T04:33:41.042Z,100.00
2023-02-24T04:36:09.206Z,100.00
2023-02-24T04:38:36.609Z,100.00
2023-02-24T04:41:03.821Z,100.00
2023-02-24T04:43:30.873Z,100.00
2023-02-24T04:45:57.933Z,100.00
2023-02-24T04:48:25.146Z,100.00
2023-02-24T04:50:55.224Z,100.00
2023-02-24T04:53:27.383Z,100.00
2023-02-24T04:55:56.253Z,100.00
2023-02-24T04:58:29.667Z,100.00
2023-02-24T05:00:57.365Z,100.00
2023-02-24T05:03:28.382Z,100.00
2023-02-24T05:06:00.361Z,100.00
2023-02-24T05:08:29.727Z,100.00
2023-02-24T05:10:58.896Z,100.00
2023-02-24T05:13:29.147Z,100.00
2023-02-24T05:16:08.073Z,100.00
2023-02-24T05:18:38.679Z,100.00
2023-02-24T05:21:29.484Z,100.00
2023-02-24T05:24:06.551Z,100.00
2023-02-24T05:26:37.039Z,100.00
2023-02-24T05:29:06.937Z,100.00
2023-02-24T05:31:34.858Z,100.00
2023-02-24T05:34:05.933Z,100.00
2023-02-24T05:36:45.948Z,100.00
2023-02-24T05:39:19.269Z,100.00
2023-02-24T05:41:49.381Z,100.00
2023-02-24T05:44:23.634Z,100.00
2023-02-24T05:46:58.416Z,100.00
2023-02-24T05:49:35.749Z,100.00
2023-02-24T05:52:09.057Z,100.00
2023-02-24T05:54:42.744Z,100.00
2023-02-24T05:57:13.782Z,100.00
2023-02-24T05:59:42.137Z,100.00
2023-02-24T06:02:13.265Z,100.00
2023-02-24T06:04:54.218Z,100.00
2023-02-24T06:07:25.793Z,100.00
2023-02-24T06:09:57.162Z,100.00
2023-02-24T06:12:36.210Z,100.00
2023-02-24T06:15:07.770Z,100.00
2023-02-24T06:17:35.208Z,100.00
2023-02-24T06:20:04.818Z,100.00
2023-02-24T06:22:33.843Z,100.00
2023-02-24T06:25:01.072Z,100.00
2023-02-24T06:27:28.067Z,100.00
2023-02-24T06:29:56.966Z,100.00
2023-02-24T06:32:26.550Z,100.00
2023-02-24T06:34:54.753Z,100.00
2023-02-24T06:37:23.419Z,100.00
2023-02-24T06:39:50.591Z,100.00
2023-02-24T06:42:17.733Z,100.00
2023-02-24T06:44:45.380Z,100.00
2023-02-24T06:47:14.771Z,100.00
2023-02-24T06:49:45.044Z,100.00
2023-02-24T06:52:18.756Z,100.00
2023-02-24T06:54:49.529Z,100.00
2023-02-24T06:57:16.925Z,100.00
2023-02-24T06:59:44.039Z,100.00
2023-02-24T07:02:11.708Z,100.00
2023-02-24T07:04:44.158Z,100.00
2023-02-24T07:07:14.561Z,100.00
2023-02-24T07:09:42.858Z,100.00
2023-02-24T07:12:12.754Z,100.00
2023-02-24T07:14:40.699Z,100.00
2023-02-24T07:17:08.963Z,100.00
2023-02-24T07:19:36.941Z,100.00
2023-02-24T07:22:04.257Z,100.00
2023-02-24T07:24:39.469Z,100.00
2023-02-24T07:27:22.402Z,100.00
2023-02-24T07:29:53.368Z,100.00
2023-02-24T07:32:22.664Z,100.00
2023-02-24T07:34:49.894Z,100.00
2023-02-24T07:37:17.089Z,100.00
2023-02-24T07:39:44.401Z,100.00
2023-02-24T07:42:13.931Z,100.00
2023-02-24T07:44:42.771Z,100.00
2023-02-24T07:47:10.181Z,100.00
2023-02-24T07:49:39.652Z,100.00
2023-02-24T07:52:08.330Z,100.00
2023-02-24T07:54:35.821Z,100.00
2023-02-24T07:57:03.297Z,100.00
2023-02-24T07:59:37.752Z,100.00
2023-02-24T08:02:07.823Z,100.00
2023-02-24T08:04:36.528Z,100.00
2023-02-24T08:07:04.731Z,100.00
2023-02-24T08:09:46.741Z,100.00
2023-02-24T08:12:22.002Z,100.00
2023-02-24T08:14:52.430Z,100.00
2023-02-24T08:17:21.482Z,100.00
2023-02-24T08:19:50.977Z,100.00
2023-02-24T08:22:21.006Z,100.00
2023-02-24T08:24:53.487Z,100.00
2023-02-24T08:27:25.666Z,100.00
2023-02-24T08:29:58.385Z,100.00
2023-02-24T08:32:27.539Z,100.00
2023-02-24T08:35:03.032Z,100.00
2023-02-24T08:37:39.876Z,100.00
2023-02-24T08:40:31.139Z,100.00
2023-02-24T08:43:17.597Z,100.00
2023-02-24T08:45:50.976Z,100.00
2023-02-24T08:48:26.484Z,100.00
2023-02-24T08:50:57.932Z,100.00
2023-02-24T08:53:31.539Z,100.00
2023-02-24T08:56:09.754Z,100.00
2023-02-24T08:58:49.129Z,100.00
2023-02-24T09:01:19.869Z,100.00
2023-02-24T09:03:55.259Z,100.00
2023-02-24T09:06:38.865Z,100.00
2023-02-24T09:09:18.816Z,100.00
2023-02-24T09:11:47.763Z,100.00
2023-02-24T09:14:28.233Z,100.00
2023-02-24T09:17:02.484Z,100.00
2023-02-24T09:19:48.345Z,100.00
2023-02-24T09:22:57.464Z,100.00
2023-02-24T09:25:40.954Z,100.00
2023-02-24T09:28:09.525Z,98.51
2023-02-24T09:30:53.460Z,98.17
2023-02-24T09:33:23.651Z,97.32
2023-02-24T09:36:09.989Z,97.85
2023-02-24T09:38:57.877Z,95.66
2023-02-24T09:42:08.227Z,94.38
2023-02-24T09:44:45.499Z,94.22
2023-02-24T09:47:37.164Z,94.00
2023-02-24T09:50:46.913Z,95.06
2023-02-24T09:53:17.654Z,93.15
2023-02-24T09:56:25.315Z,90.69
2023-02-24T09:59:10.425Z,91.35
2023-02-24T10:01:46.732Z,89.29
2023-02-24T10:04:49.422Z,87.79
2023-02-24T10:07:38.659Z,86.11
2023-02-24T10:10:19.900Z,86.33
2023-02-24T10:13:18.685Z,86.68
2023-02-24T10:15:58.699Z,86.54
2023-02-24T10:18:48.752Z,85.77
2023-02-24T10:21:48.472Z,86.15
2023-02-24T10:24:41.387Z,85.79
2023-02-24T10:27:33.404Z,85.30
2023-02-24T10:30:41.065Z,85.27
2023-02-24T10:33:37.871Z,84.85
2023-02-24T10:36:13.539Z,84.96
2023-02-24T10:38:45.478Z,84.05
2023-02-24T10:41:17.227Z,84.46
2023-02-24T10:43:56.391Z,85.10
2023-02-24T10:46:42.893Z,84.15
2023-02-24T10:49:16.944Z,84.20
2023-02-24T10:51:53.284Z,84.78
2023-02-24T10:57:19.389Z,84.27
2023-02-24T11:00:20.952Z,84.96
2023-02-24T11:03:11.369Z,85.08
2023-02-24T11:06:08.478Z,85.52
2023-02-24T11:08:44.338Z,84.82
2023-02-24T11:11:52.500Z,84.04
2023-02-24T11:14:38.849Z,83.54
2023-02-24T11:17:30.003Z,84.33
2023-02-24T11:20:19.584Z,84.02
2023-02-24T11:22:52.140Z,84.89
2023-02-24T11:25:39.674Z,84.66
2023-02-24T11:28:26.942Z,85.11
2023-02-24T11:31:25.198Z,85.57
2023-02-24T11:34:07.670Z,85.64
2023-02-24T11:36:54.580Z,86.22
2023-02-24T11:39:56.268Z,84.65
2023-02-24T11:42:36.784Z,84.52
2023-02-24T11:45:55.263Z,84.56
2023-02-24T11:48:39.976Z,86.06
2023-02-24T11:51:17.024Z,86.40
2023-02-24T11:53:55.831Z,86.48
2023-02-24T11:56:44.558Z,85.94
2023-02-24T11:59:42.699Z,85.74
2023-02-24T12:03:05.135Z,84.77
2023-02-24T12:05:40.642Z,83.88
2023-02-24T12:08:23.845Z,83.08
2023-02-24T12:11:01.961Z,83.27
2023-02-24T12:13:55.629Z,83.73
2023-02-24T12:16:45.942Z,82.22
2023-02-24T12:19:37.560Z,79.49
2023-02-24T12:22:16.717Z,77.77
2023-02-24T12:24:52.527Z,76.29
2023-02-24T12:27:54.928Z,73.92
2023-02-24T12:30:49.241Z,73.49
2023-02-24T12:33:44.969Z,73.10
2023-02-24T12:37:07.899Z,72.65
2023-02-24T12:39:48.141Z,73.26
2023-02-24T12:43:12.690Z,73.26
2023-02-24T12:45:54.216Z,72.31
2023-02-24T12:48:58.437Z,70.42
2023-02-24T12:51:49.291Z,69.57
2023-02-24T12:54:49.755Z,69.59
2023-02-24T12:57:42.480Z,68.36
2023-02-24T13:00:26.223Z,66.19
2023-02-24T13:03:13.969Z,65.56
2023-02-24T13:06:03.240Z,64.33
2023-02-24T13:09:14.932Z,64.68
2023-02-24T13:12:27.378Z,62.71
2023-02-24T13:14:54.820Z,62.79
2023-02-24T13:17:27.111Z,63.57
2023-02-24T13:19:55.855Z,63.55
2023-02-24T13:22:32.768Z,62.72
2023-02-24T13:25:08.616Z,62.33
2023-02-24T13:27:38.975Z,62.72
2023-02-24T13:30:11.271Z,63.31
2023-02-24T13:32:45.747Z,62.09
2023-02-24T13:35:15.581Z,62.62
2023-02-24T13:37:46.511Z,62.53
2023-02-24T13:40:18.942Z,62.22
2023-02-24T13:42:59.499Z,62.73
2023-02-24T13:45:39.824Z,62.25
2023-02-24T13:48:42.559Z,61.98
2023-02-24T13:51:46.521Z,61.13
2023-02-24T13:55:00.489Z,61.04
2023-02-24T13:57:49.018Z,60.12
2023-02-24T14:00:40.925Z,60.54
2023-02-24T14:03:21.144Z,59.79
2023-02-24T14:05:49.790Z,59.61
2023-02-24T14:08:25.763Z,59.92
2023-02-24T14:10:57.044Z,59.78
2023-02-24T14:13:34.108Z,60.35
2023-02-24T14:16:08.198Z,60.23
2023-02-24T14:18:36.709Z,60.77
2023-02-24T14:21:04.152Z,60.21
2023-02-24T14:23:35.464Z,61.18
2023-02-24T14:26:07.572Z,60.44
2023-02-24T14:28:40.052Z,61.03
2023-02-24T14:31:17.041Z,61.24
2023-02-24T14:33:46.216Z,60.88
2023-02-24T14:36:25.501Z,59.96
2023-02-24T14:39:16.348Z,60.50
2023-02-24T14:41:44.873Z,59.10
2023-02-24T14:44:30.504Z,59.74
2023-02-24T14:47:03.012Z,58.80
2023-02-24T14:49:36.407Z,58.63
2023-02-24T14:52:10.729Z,59.28
2023-02-24T14:55:17.716Z,58.46
2023-02-24T14:58:09.004Z,58.58
2023-02-24T15:00:43.754Z,58.37
2023-02-24T15:03:39.005Z,59.33
2023-02-24T15:06:20.066Z,58.24
2023-02-24T15:08:52.554Z,58.10
2023-02-24T15:11:23.513Z,58.25
2023-02-24T15:14:02.697Z,57.68
2023-02-24T15:16:40.033Z,58.11
2023-02-24T15:19:37.152Z,59.03
2023-02-24T15:22:41.547Z,58.74
2023-02-24T15:25:37.106Z,58.71
2023-02-24T15:28:31.388Z,59.97
2023-02-24T15:31:16.114Z,60.48
2023-02-24T15:33:53.818Z,61.05
2023-02-24T15:36:28.975Z,60.52
2023-02-24T15:39:05.046Z,61.04
2023-02-24T15:41:49.082Z,61.30
2023-02-24T15:44:32.258Z,60.96
2023-02-24T15:47:12.426Z,61.17
2023-02-24T15:49:42.156Z,60.76
2023-02-24T15:52:10.338Z,61.28
2023-02-24T15:54:42.722Z,61.20
2023-02-24T15:57:13.320Z,61.36
2023-02-24T15:59:41.347Z,60.73
2023-02-24T16:02:19.942Z,61.17
2023-02-24T16:04:48.511Z,61.17
2023-02-24T16:07:31.106Z,61.83
2023-02-24T16:09:59.942Z,61.20
2023-02-24T16:12:33.226Z,61.46
2023-02-24T16:15:04.336Z,61.44
2023-02-24T16:17:42.915Z,61.75
2023-02-24T16:20:18.572Z,62.31
2023-02-24T16:22:46.619Z,62.48
2023-02-24T16:27:50.422Z,62.35
2023-02-24T16:30:22.463Z,62.51
2023-02-24T16:32:51.230Z,61.90
2023-02-24T16:35:19.622Z,62.27
2023-02-24T16:37:48.965Z,61.77
2023-02-24T16:40:28.113Z,62.25
2023-02-24T16:42:55.255Z,62.28
2023-02-24T16:45:26.815Z,62.98
2023-02-24T16:47:57.679Z,63.07
2023-02-24T16:50:41.724Z,63.10
2023-02-24T16:53:13.344Z,63.86
2023-02-24T16:55:40.404Z,63.29
2023-02-24T16:58:07.384Z,63.85
2023-02-24T17:00:34.582Z,64.09
2023-02-24T17:03:17.250Z,63.81
2023-02-24T17:05:44.638Z,63.55
2023-02-24T17:08:12.459Z,64.56
2023-02-24T17:10:40.115Z,64.13
2023-02-24T17:13:07.686Z,64.52
2023-02-24T17:15:34.730Z,65.84
2023-02-24T17:18:02.250Z,66.23
2023-02-24T17:20:29.519Z,65.17
2023-02-24T17:22:56.554Z,65.41
2023-02-24T17:25:27.018Z,65.72
2023-02-24T17:27:55.720Z,66.08
2023-02-24T17:30:30.743Z,67.13
2023-02-24T17:32:58.284Z,66.32
2023-02-24T17:35:27.132Z,65.63
2023-02-24T17:37:54.568Z,65.65
2023-02-24T17:40:22.105Z,65.38
2023-02-24T17:42:49.229Z,64.74
2023-02-24T17:45:16.453Z,63.72
2023-02-24T17:47:49.481Z,64.28
2023-02-24T17:50:17.318Z,64.07
2023-02-24T17:52:44.864Z,64.21
2023-02-24T17:55:12.554Z,63.67
2023-02-24T17:57:40.016Z,63.18
2023-02-24T18:00:10.839Z,63.30
2023-02-24T18:02:38.677Z,63.07
2023-02-24T18:05:06.605Z,62.99
2023-02-24T18:07:34.072Z,63.62
2023-02-24T18:10:02.801Z,63.64
2023-02-24T18:12:32.752Z,64.35
2023-02-24T18:15:08.387Z,63.94
2023-02-24T18:17:38.830Z,64.11
2023-02-24T18:20:08.588Z,64.28
2023-02-24T18:22:36.316Z,64.52
2023-02-24T18:25:04.275Z,64.97
2023-02-24T18:27:31.376Z,65.56
2023-02-24T18:29:58.365Z,65.97
2023-02-24T18:32:25.604Z,66.31
2023-02-24T18:34:52.691Z,67.42
2023-02-24T18:37:20.166Z,66.82
2023-02-24T18:39:47.297Z,66.46
2023-02-24T18:42:14.285Z,66.13
2023-02-24T18:44:41.273Z,65.52
2023-02-24T18:47:09.850Z,65.26
2023-02-24T18:49:37.867Z,64.93
2023-02-24T18:52:07.472Z,65.34
2023-02-24T18:54:34.932Z,64.30
2023-02-24T18:57:02.226Z,63.93
2023-02-24T18:59:29.369Z,64.51
2023-02-24T19:01:57.089Z,65.19
2023-02-24T19:04:25.132Z,65.47
2023-02-24T19:06:52.223Z,65.40
2023-02-24T19:09:21.792Z,66.06
2023-02-24T19:11:50.218Z,65.57
2023-02-24T19:14:17.541Z,66.06
2023-02-24T19:16:45.410Z,66.24
2023-02-24T19:19:16.782Z,66.26
2023-02-24T19:21:48.442Z,65.90
2023-02-24T19:24:17.145Z,66.30
2023-02-24T19:26:45.910Z,66.54
2023-02-24T19:29:13.744Z,67.56
2023-02-24T19:31:41.016Z,69.19
2023-02-24T19:34:13.150Z,70.22
2023-02-24T19:36:41.378Z,70.39
2023-02-24T19:39:15.950Z,70.90
2023-02-24T19:41:43.211Z,70.95
2023-02-24T19:44:11.027Z,71.05
2023-02-24T19:46:39.088Z,71.21
2023-02-24T19:49:06.819Z,70.90
2023-02-24T19:51:35.417Z,71.20
2023-02-24T19:54:03.649Z,71.87
2023-02-24T19:56:35.698Z,73.43
2023-02-24T19:59:06.633Z,74.55
2023-02-24T20:01:34.117Z,75.76
2023-02-24T20:04:04.037Z,76.89
2023-02-24T20:06:37.642Z,78.05
2023-02-24T20:09:17.179Z,79.32
2023-02-24T20:11:45.946Z,80.46
2023-02-24T20:14:14.435Z,81.97
2023-02-24T20:16:43.003Z,83.69
2023-02-24T20:19:12.221Z,84.13
2023-02-24T20:21:40.375Z,85.51
2023-02-24T20:24:13.879Z,85.72
2023-02-24T20:26:46.366Z,86.25
2023-02-24T20:29:15.078Z,85.45
2023-02-24T20:31:42.537Z,85.55
2023-02-24T20:34:10.728Z,85.18
2023-02-24T20:36:38.261Z,83.97
2023-02-24T20:39:08.613Z,83.73
2023-02-24T20:41:35.657Z,84.08
2023-02-24T20:44:02.801Z,84.12
2023-02-24T20:46:32.370Z,83.50
2023-02-24T20:49:04.141Z,84.21
2023-02-24T20:51:32.805Z,83.36
2023-02-24T20:54:00.479Z,83.20
2023-02-24T20:56:33.195Z,83.11
2023-02-24T20:59:04.515Z,83.22
2023-02-24T21:01:33.043Z,82.83
2023-02-24T21:04:00.869Z,83.20
2023-02-24T21:06:29.067Z,83.33
2023-02-24T21:08:57.453Z,83.96
2023-02-24T21:11:24.896Z,84.14
2023-02-24T21:13:52.615Z,84.44
2023-02-24T21:16:21.236Z,85.24
2023-02-24T21:18:50.600Z,85.43
2023-02-24T21:21:19.541Z,86.48
2023-02-24T21:23:47.177Z,86.99
2023-02-24T21:26:14.898Z,87.76
2023-02-24T21:28:42.032Z,87.26
2023-02-24T21:31:16.056Z,87.94
2023-02-24T21:33:43.568Z,88.38
2023-02-24T21:36:15.853Z,88.42
2023-02-24T21:38:42.938Z,89.38
2023-02-24T21:41:14.974Z,89.33
2023-02-24T21:43:44.241Z,89.86
2023-02-24T21:46:14.395Z,90.00
2023-02-24T21:48:42.019Z,89.47
2023-02-24T21:51:11.967Z,90.12
2023-02-24T21:53:41.941Z,90.08
2023-02-24T21:56:17.461Z,90.42
2023-02-24T21:58:54.127Z,90.25
2023-02-24T22:01:32.838Z,90.19
2023-02-24T22:04:03.244Z,89.19
2023-02-24T22:06:32.124Z,89.06
2023-02-24T22:09:00.385Z,88.76
2023-02-24T22:11:27.681Z,86.91
2023-02-24T22:13:54.658Z,86.25
2023-02-24T22:16:25.344Z,85.42
2023-02-24T22:18:54.656Z,85.15
2023-02-24T22:21:28.109Z,85.33
2023-02-24T22:23:59.904Z,85.07
2023-02-24T22:26:29.141Z,84.17
2023-02-24T22:28:56.779Z,83.55
2023-02-24T22:31:29.087Z,83.44
2023-02-24T22:33:56.805Z,83.33
2023-02-24T22:36:27.507Z,83.65
2023-02-24T22:38:59.603Z,83.56
2023-02-24T22:41:33.110Z,82.57
2023-02-24T22:44:02.198Z,81.77
2023-02-24T22:46:33.435Z,81.33
2023-02-24T22:49:00.883Z,81.11
2023-02-24T22:51:28.520Z,80.97
2023-02-24T22:53:56.444Z,80.83
2023-02-24T22:56:27.201Z,80.46
2023-02-24T22:58:55.100Z,79.74
2023-02-24T23:01:32.176Z,79.77
2023-02-24T23:04:01.489Z,79.38
2023-02-24T23:06:29.275Z,79.25
2023-02-24T23:08:58.423Z,79.13
2023-02-24T23:11:31.787Z,78.46
2023-02-24T23:14:04.011Z,77.97
2023-02-24T23:16:34.289Z,78.07
2023-02-24T23:19:06.684Z,77.89
2023-02-24T23:21:38.444Z,77.49
2023-02-24T23:24:08.113Z,76.97
2023-02-24T23:26:43.701Z,77.29
2023-02-24T23:29:14.445Z,77.09
2023-02-24T23:31:42.426Z,77.42
2023-02-24T23:34:10.272Z,77.82
2023-02-24T23:36:40.891Z,77.70
2023-02-24T23:39:09.182Z,78.11
2023-02-24T23:41:38.073Z,77.68
2023-02-24T23:44:06.185Z,77.84
2023-02-24T23:46:35.200Z,77.58
2023-02-24T23:49:02.340Z,77.78
2023-02-24T23:51:45.713Z,77.96
2023-02-24T23:54:14.497Z,77.93
2023-02-24T23:56:41.569Z,77.94
2023-02-24T23:59:08.759Z,78.05
